Latest Weather Observations for Pearce

IDW60901

Issued at 1:31 pm WST Monday 23 September 2019 (issued every 10 minutes, with the page automatically refreshed every 10 minutes)

About weather observations | Map of Perth area stations | Latest observations for Perth area | Other Formats
Station Details ID: 009053 Name: PEARCE RAAF Lat: -31.67 Lon: 116.02 Height: 40.0 m
Data from the previous 72 hours. | See also: Recent months at Pearce
Date/Time
WST
Temp
°C
App
Temp
°C
Dew
Point
°C
Rel
Hum
%
Delta-T
°C
Wind Press
QNH
hPa
Press
MSL
hPa
Rain since
9am
mm
Dir  Spd
km/h
Gust
km/h
Spd
kts
Gust
kts
23/01:00pm 24.3 19.8 4.1 27 9.9 NE 17 30 9 16 1025.5 1025.5 0.0
23/12:30pm 24.3 20.6 4.6 28 9.8 NNE 13 20 7 11 1026.1 1026.1 0.0
23/12:00pm 23.2 20.5 8.9 40 7.6 NNE 13 19 7 10 1026.5 1026.5 0.0
23/11:30am 22.1 17.4 5.1 33 8.4 ENE 19 24 10 13 1026.9 1026.9 0.0
23/11:00am 21.3 16.4 4.0 32 8.3 NE 19 24 10 13 1027.2 1027.2 0.0
23/10:30am 20.4 15.6 4.8 36 7.6 NE 19 26 10 14 1027.6 1027.6 0.0
23/10:00am 19.4 15.1 5.1 39 6.9 N 17 30 9 16 1028.0 1028.0 0.0
23/09:30am 18.5 15.4 5.7 43 6.3 N 11 17 6 9 1028.3 1028.3 0.0
23/09:00am 16.6 13.3 4.3 44 5.7 N 11 24 6 13 1028.5 1028.5 0.0
23/08:30am 15.5 11.8 4.6 48 5.1 NNE 13 22 7 12 1028.5 1028.5 0.0
23/08:00am 14.5 12.0 3.9 49 4.8 WNW 6 11 3 6 1028.6 1028.6 0.0
23/07:30am 13.2 8.1 3.3 51 4.4 ENE 19 33 10 18 1028.6 1028.6 0.0
23/07:00am 12.5 7.9 3.5 54 4.0 E 17 30 9 16 1028.4 1028.4 0.0
23/06:30am 11.5 7.2 3.3 57 3.6 E 15 24 8 13 1028.3 1028.3 0.0
23/06:00am 11.4 7.5 3.2 57 3.6 E 13 20 7 11 1028.2 1028.2 0.0
23/05:30am 11.6 6.9 3.1 56 3.7 ENE 17 28 9 15 1028.0 1028.0 0.0
23/05:00am 12.3 7.2 3.3 54 4.0 E 19 28 10 15 1027.9 1027.9 0.0
23/04:30am 12.4 6.8 3.4 54 4.0 E 22 32 12 17 1028.0 1028.0 0.0
23/04:00am 12.4 8.2 3.6 55 3.9 ENE 15 26 8 14 1028.0 1028.0 0.0
23/03:30am 12.7 8.1 3.6 54 4.1 E 17 24 9 13 1028.2 1028.2 0.0
23/03:00am 12.8 8.6 4.0 55 4.0 E 15 22 8 12 1028.3 1028.3 0.0
23/02:30am 12.4 9.5 4.9 60 3.5 SE 9 13 5 7 1028.5 1028.5 0.0
23/02:00am 10.5 8.5 6.3 75 1.9 ESE 6 9 3 5 1028.8 1028.8 0.0
23/01:30am 7.7 6.5 4.8 82 1.3 CALM 0 0 0 0 1029.1 1029.1 0.0
23/01:00am 9.2 8.4 6.6 84 1.2 CALM 0 0 0 0 1029.5 1029.5 0.0
23/12:30am 8.8 8.0 6.4 85 1.1 CALM 0 6 0 3 1029.8 1029.8 0.0
23/12:00am 9.9 8.7 6.6 80 1.5 SE 2 7 1 4 1030.1 1030.1 0.0
 
Date/Time
WST
Temp
°C
App
Temp
°C
Dew
Point
°C
Rel
Hum
%
Delta-T
°C
Wind Press
QNH
hPa
Press
MSL
hPa
Rain since
9am
mm
Dir  Spd
km/h
Gust
km/h
Spd
kts
Gust
kts
22/11:30pm 9.8 7.3 6.7 81 1.5 SE 9 13 5 7 1030.2 1030.2 0.0
22/11:00pm 9.4 8.6 6.7 83 1.3 CALM 0 0 0 0 1030.1 1030.1 0.0
22/10:30pm 10.9 9.4 6.6 75 2.0 SE 4 7 2 4 1030.2 1030.2 0.0
22/10:00pm 12.1 9.9 8.0 76 2.0 SE 9 9 5 5 1030.4 1030.4 0.0
22/09:30pm 12.0 9.1 8.3 78 1.8 SSE 13 17 7 9 1030.7 1030.7 0.0
22/09:00pm 12.2 9.0 8.3 77 1.9 S 15 15 8 8 1030.8 1030.8 0.0
22/08:30pm 12.3 9.8 8.0 75 2.1 S 11 15 6 8 1030.7 1030.7 0.0
22/08:00pm 12.7 9.9 8.4 75 2.1 SSE 13 15 7 8 1030.6 1030.6 0.0
22/07:30pm 13.0 10.5 8.1 72 2.4 SSE 11 13 6 7 1030.2 1030.2 0.0
22/07:00pm 14.0 11.1 6.6 61 3.5 E 11 17 6 9 1030.0 1030.0 0.0
22/06:30pm 17.2 14.5 5.8 47 5.5 ESE 9 11 5 6 1029.6 1029.6 0.0
22/06:00pm 17.5 14.4 5.4 45 5.8 E 11 15 6 8 1029.2 1029.2 0.0
22/05:30pm 18.6 14.7 5.5 42 6.4 E 15 20 8 11 1029.1 1029.1 0.0
22/05:00pm 19.3 15.1 5.7 41 6.7 E 17 20 9 11 1028.7 1028.7 0.0
22/04:30pm 19.6 15.9 6.4 42 6.6 E 15 20 8 11 1028.8 1028.8 0.0
22/04:00pm 19.7 16.6 5.4 39 7.0 ESE 11 22 6 12 1028.9 1028.9 0.0
22/03:30pm 19.9 16.4 5.5 39 7.1 ESE 13 24 7 13 1028.8 1028.8 0.0
22/03:00pm 19.8 17.3 6.5 42 6.6 ESE 9 17 5 9 1028.8 1028.8 0.0
22/02:30pm 19.7 17.6 8.1 47 6.0 NE 9 17 5 9 1029.1 1029.1 0.0
22/02:00pm 19.2 15.5 6.3 43 6.4 ENE 15 26 8 14 1029.4 1029.4 0.0
22/01:30pm 19.0 15.7 6.5 44 6.2 ENE 13 30 7 16 1029.7 1029.7 0.0
22/01:00pm 18.1 14.4 6.3 46 5.8 NE 15 22 8 12 1030.3 1030.3 0.0
22/12:30pm 17.2 13.7 7.3 52 5.0 E 15 24 8 13 1031.0 1031.0 0.0
22/12:00pm 16.6 12.1 5.9 49 5.2 ENE 19 26 10 14 1031.2 1031.2 0.0
22/11:30am 17.1 12.1 6.6 50 5.2 NE 22 30 12 16 1031.3 1031.3 0.0
22/11:00am 16.9 12.6 7.8 55 4.6 ENE 20 28 11 15 1031.6 1031.6 0.0
22/10:30am 15.6 9.8 6.1 53 4.6 NE 26 37 14 20 1031.6 1031.6 0.0
22/10:00am 15.3 10.0 6.6 56 4.2 NE 24 32 13 17 1031.8 1031.8 0.0
22/09:30am 14.7 9.0 6.5 58 4.0 NE 26 41 14 22 1031.8 1031.8 0.0
22/09:00am 14.0 8.6 6.4 60 3.6 ENE 24 35 13 19 1032.0 1032.0 0.0
22/08:30am 13.1 7.0 6.5 64 3.2 ENE 28 39 15 21 1032.0 1032.0 0.0
22/08:00am 11.9 6.2 6.8 71 2.4 ENE 26 37 14 20 1032.0 1032.0 0.0
22/07:30am 11.0 5.7 6.6 74 2.1 E 24 33 13 18 1032.0 1032.0 0.0
22/07:00am 9.8 5.3 6.2 78 1.7 E 19 24 10 13 1031.9 1031.9 0.0
22/06:30am 9.0 4.8 5.7 80 1.5 E 17 24 9 13 1031.6 1031.6 0.0
22/06:00am 8.7 5.2 5.4 80 1.5 E 13 19 7 10 1031.4 1031.4 0.0
22/05:30am 8.8 4.9 5.4 79 1.5 ENE 15 22 8 12 1031.1 1031.1 0.0
22/05:00am 8.9 6.7 5.3 78 1.6 E 6 11 3 6 1030.8 1030.8 0.0
22/04:30am 9.2 6.9 5.6 78 1.6 ESE 7 13 4 7 1030.6 1030.6 0.0
22/04:00am 9.3 5.8 5.5 77 1.7 ESE 13 20 7 11 1030.3 1030.3 0.0
22/03:30am 9.4 8.3 5.0 74 2.0 CALM 0 6 0 3 1030.4 1030.4 0.0
22/03:00am 9.3 6.9 4.5 72 2.1 SSW 6 11 3 6 1030.3 1030.3 0.0
22/02:30am 9.7 7.2 4.5 70 2.3 SSW 7 13 4 7 1030.3 1030.3 0.0
22/02:00am 9.4 8.0 3.6 67 2.5 CALM 0 7 0 4 1030.6 1030.6 0.0
22/01:30am 10.5 8.0 4.9 68 2.5 SW 7 11 4 6 1030.7 1030.7 0.0
22/01:00am 10.6 8.0 3.4 61 3.1 SE 6 7 3 4 1030.9 1030.9 0.0
22/12:30am 10.5 6.6 3.5 62 3.1 S 13 17 7 9 1031.2 1031.2 0.0
22/12:00am 9.8 6.6 3.1 63 2.9 S 9 13 5 7 1031.1 1031.1 0.0
 
Date/Time
WST
Temp
°C
App
Temp
°C
Dew
Point
°C
Rel
Hum
%
Delta-T
°C
Wind Press
QNH
hPa
Press
MSL
hPa
Rain since
9am
mm
Dir  Spd
km/h
Gust
km/h
Spd
kts
Gust
kts
21/11:30pm 9.8 6.6 3.1 63 2.9 SSW 9 11 5 6 1030.7 1030.7 0.0
21/11:00pm 10.1 7.3 2.9 61 3.1 SSW 7 9 4 5 1030.3 1030.3 0.0
21/10:30pm 10.5 7.8 3.8 63 3.0 SSW 7 11 4 6 1030.3 1030.3 0.0
21/10:00pm 10.7 7.5 3.3 60 3.2 SSW 9 13 5 7 1030.4 1030.4 0.0
21/09:30pm 11.4 8.3 3.7 59 3.4 SW 9 11 5 6 1030.3 1030.3 0.0
21/09:00pm 12.2 10.5 3.9 57 3.7 SE 2 6 1 3 1030.2 1030.2 0.0
21/08:30pm 11.6 8.2 4.1 60 3.4 SSW 11 13 6 7 1030.1 1030.1 0.0
21/08:00pm 13.3 10.3 4.2 54 4.1 SSE 9 15 5 8 1029.8 1029.8 0.0
21/07:30pm 13.8 10.0 5.7 58 3.8 SE 15 24 8 13 1029.2 1029.2 0.0
21/07:00pm 12.5 9.5 6.1 65 3.0 S 11 13 6 7 1028.5 1028.5 0.0
21/06:30pm 13.6 10.4 6.7 63 3.3 S 13 15 7 8 1028.1 1028.1 0.0
21/06:00pm 14.6 10.9 6.4 58 3.9 SSW 15 20 8 11 1027.9 1027.9 0.0
21/05:30pm 15.9 11.6 6.9 55 4.4 SSW 19 22 10 12 1027.8 1027.8 0.0
21/05:00pm 17.0 12.5 6.2 49 5.3 SSW 19 24 10 13 1027.8 1027.8 0.0
21/04:30pm 17.6 13.1 6.8 49 5.4 SSW 20 28 11 15 1027.7 1027.7 0.0
21/04:00pm 17.9 13.6 7.0 49 5.4 SSW 19 24 10 13 1027.7 1027.7 0.0
21/03:30pm 18.5 14.3 7.3 48 5.7 S 19 30 10 16 1027.7 1027.7 0.0
21/03:00pm 18.6 15.1 7.1 47 5.8 S 15 22 8 12 1027.8 1027.8 0.0
21/02:30pm 18.0 14.1 5.2 43 6.2 S 15 19 8 10 1027.9 1027.9 0.0
21/02:00pm 18.7 15.7 5.9 43 6.3 SSE 11 17 6 9 1028.1 1028.1 0.0
21/01:30pm 18.2 14.5 4.7 41 6.5 S 13 20 7 11 1028.4 1028.4 0.0
21/01:00pm 17.3 14.0 4.6 43 6.0 SSW 11 15 6 8 1028.5 1028.5 0.0
21/12:30pm 17.0 14.3 5.6 47 5.5 S 9 17 5 9 1028.8 1028.8 0.0
21/12:00pm 16.9 14.4 4.6 44 5.8 S 7 13 4 7 1029.2 1029.2 0.0
21/11:30am 16.5 13.6 6.3 51 5.0 SE 11 19 6 10 1029.3 1029.3 0.0
21/11:00am 16.6 13.2 5.9 49 5.2 ESE 13 22 7 12 1029.6 1029.6 0.0
21/10:30am 15.8 11.8 5.1 49 5.1 E 15 22 8 12 1029.9 1029.9 0.0
21/10:00am 15.6 11.4 5.8 52 4.7 ENE 17 24 9 13 1030.1 1030.1 0.0
21/09:30am 14.9 10.4 6.2 56 4.2 ENE 19 24 10 13 1030.4 1030.4 0.0
21/09:00am 14.0 9.5 6.1 59 3.7 E 19 28 10 15 1030.5 1030.5 0.0
21/08:30am 13.2 9.1 6.3 63 3.3 E 17 28 9 15 1030.4 1030.4 0.0
21/08:00am 12.4 8.8 6.9 69 2.6 E 15 24 8 13 1030.2 1030.2 0.0
21/07:30am 11.3 7.6 6.4 72 2.3 ENE 15 24 8 13 1030.0 1030.0 0.0
21/07:00am 10.1 6.4 6.3 77 1.8 ENE 15 24 8 13 1029.8 1029.8 0.0
21/06:30am 9.1 4.3 5.8 80 1.5 ENE 20 28 11 15 1029.4 1029.4 0.0
21/06:00am 9.2 4.4 5.8 79 1.5 ENE 20 30 11 16 1029.3 1029.3 0.0
21/05:30am 9.2 5.4 5.8 79 1.6 ENE 15 19 8 10 1029.1 1029.1 0.0
21/05:00am 9.2 5.0 5.8 79 1.5 ENE 17 26 9 14 1028.9 1028.9 0.0
21/04:30am 9.2 5.4 5.8 79 1.6 E 15 19 8 10 1028.6 1028.6 0.0
21/04:00am 9.2 6.9 5.8 79 1.5 E 7 15 4 8 1028.5 1028.5 0.0
21/03:30am 9.6 7.5 6.7 82 1.4 SSE 7 15 4 8 1028.3 1028.3 0.0
21/03:00am 9.3 8.0 5.9 79 1.5 SSW 2 9 1 5 1028.4 1028.4 0.0
21/02:30am 9.6 8.4 6.5 81 1.4 SSE 2 11 1 6 1028.3 1028.3 0.0
21/02:00am 9.2 8.0 6.5 83 1.2 WSW 2 7 1 4 1028.1 1028.1 0.0
21/01:30am 7.2 5.4 5.2 87 0.9 SW 4 7 2 4 1028.2 1028.2 0.0
21/01:00am 6.5 4.4 4.0 84 1.1 WSW 4 9 2 5 1028.3 1028.3 0.0
21/12:30am 7.8 5.5 5.6 86 1.0 S 7 9 4 5 1028.5 1028.5 0.0
21/12:00am 8.0 5.6 5.1 82 1.3 S 7 9 4 5 1028.5 1028.5 0.0
 
Date/Time
WST
Temp
°C
App
Temp
°C
Dew
Point
°C
Rel
Hum
%
Delta-T
°C
Wind Press
QNH
hPa
Press
MSL
hPa
Rain since
9am
mm
Dir  Spd
km/h
Gust
km/h
Spd
kts
Gust
kts
20/11:30pm 9.3 7.1 6.2 81 1.4 S 7 9 4 5 1028.5 1028.5 0.0
20/11:00pm 9.1 6.9 6.0 81 1.4 S 7 9 4 5 1028.5 1028.5 0.0
20/10:30pm 9.3 6.7 6.2 81 1.4 S 9 11 5 6 1028.5 1028.5 0.0
20/10:00pm 9.2 6.6 5.9 80 1.5 S 9 9 5 5 1028.5 1028.5 0.0
20/09:30pm 10.4 7.9 6.4 76 1.9 SSE 9 13 5 7 1028.5 1028.5 0.0
20/09:00pm 10.7 7.8 6.5 75 2.0 SSE 11 13 6 7 1028.5 1028.5 0.0
20/08:30pm 10.9 8.0 6.3 73 2.2 S 11 13 6 7 1028.6 1028.6 0.0
20/08:00pm 12.0 8.7 6.5 69 2.6 SSE 13 15 7 8 1028.3 1028.3 0.0
20/07:30pm 12.1 8.5 6.8 70 2.5 S 15 19 8 10 1028.2 1028.2 0.0
20/07:00pm 12.1 9.1 6.2 67 2.8 SSW 11 15 6 8 1027.9 1027.9 0.0
20/06:30pm 13.0 9.6 5.9 62 3.4 SSW 13 17 7 9 1027.6 1027.6 0.0
20/06:00pm 14.2 9.4 5.8 57 4.0 SSW 20 24 11 13 1027.4 1027.4 0.0
20/05:30pm 15.5 10.8 6.0 53 4.6 SW 20 30 11 16 1027.0 1027.0 0.0
20/05:00pm 16.2 13.0 5.2 48 5.2 SSW 11 13 6 7 1026.7 1026.7 0.0
20/04:30pm 15.7 12.7 4.1 46 5.4 SSE 9 13 5 7 1026.5 1026.5 0.0
20/04:00pm 16.1 12.3 3.9 44 5.6 S 13 17 7 9 1026.4 1026.4 0.0
20/03:30pm 16.5 13.2 4.5 45 5.7 SSW 11 17 6 9 1026.3 1026.3 0.0
20/03:00pm 16.7 13.2 5.3 47 5.4 SSW 13 24 7 13 1026.2 1026.2 0.0
20/02:30pm 17.1 13.1 4.8 44 5.9 SSE 15 20 8 11 1026.3 1026.3 0.0
20/02:00pm 16.3 12.3 5.0 47 5.3 SSW 15 22 8 12 1026.5 1026.5 0.0

Latest Capital City Observations: Canberra | Sydney | Melbourne | Brisbane | Adelaide | Perth | Hobart | Darwin

Other formats

Comma delimited format used in spreadsheet applications
http://www.bom.gov.au/fwo/IDW60901/IDW60901.94612.axf

JavaScript Object Notation format (JSON) in row-major order
http://www.bom.gov.au/fwo/IDW60901/IDW60901.94612.json

Data quality

Most of these data are generated automatically and are frequently updated. Quality checks on data are not normally performed. It is possible for incorrect values to appear. Refer to information at About Latest Weather Observations and please check the disclaimer before using these data.